sensor_id;sensor_type;location;lat;lon;timestamp;P1;durP1;ratioP1;P2;durP2;ratioP2
77872;SDS011;67068;52.116;4.440;2023-05-27T00:00:20;8.10;;;1.63;;
77872;SDS011;67068;52.116;4.440;2023-05-27T00:02:45;9.63;;;2.57;;
77872;SDS011;67068;52.116;4.440;2023-05-27T00:05:11;9.47;;;2.10;;
77872;SDS011;67068;52.116;4.440;2023-05-27T00:07:36;7.80;;;1.70;;
77872;SDS011;67068;52.116;4.440;2023-05-27T00:10:01;10.53;;;2.40;;
77872;SDS011;67068;52.116;4.440;2023-05-27T00:12:27;9.05;;;2.38;;
77872;SDS011;67068;52.116;4.440;2023-05-27T00:14:52;8.33;;;1.80;;
77872;SDS011;67068;52.116;4.440;2023-05-27T00:17:17;9.63;;;2.40;;
77872;SDS011;67068;52.116;4.440;2023-05-27T00:19:43;9.80;;;2.10;;
77872;SDS011;67068;52.116;4.440;2023-05-27T00:22:10;8.85;;;2.20;;
77872;SDS011;67068;52.116;4.440;2023-05-27T00:24:35;7.80;;;1.98;;
77872;SDS011;67068;52.116;4.440;2023-05-27T00:27:02;8.98;;;2.05;;
77872;SDS011;67068;52.116;4.440;2023-05-27T00:29:27;9.10;;;2.20;;
77872;SDS011;67068;52.116;4.440;2023-05-27T00:31:53;10.25;;;2.15;;
77872;SDS011;67068;52.116;4.440;2023-05-27T00:34:18;7.10;;;1.80;;
77872;SDS011;67068;52.116;4.440;2023-05-27T00:36:43;9.20;;;2.17;;
77872;SDS011;67068;52.116;4.440;2023-05-27T00:39:08;8.43;;;2.27;;
77872;SDS011;67068;52.116;4.440;2023-05-27T00:41:34;8.93;;;2.05;;
77872;SDS011;67068;52.116;4.440;2023-05-27T00:44:00;8.20;;;2.00;;
77872;SDS011;67068;52.116;4.440;2023-05-27T00:46:26;7.57;;;2.03;;
77872;SDS011;67068;52.116;4.440;2023-05-27T00:48:51;9.10;;;2.37;;
77872;SDS011;67068;52.116;4.440;2023-05-27T00:51:16;7.82;;;1.80;;
77872;SDS011;67068;52.116;4.440;2023-05-27T00:53:42;8.85;;;1.80;;
77872;SDS011;67068;52.116;4.440;2023-05-27T00:56:08;9.45;;;2.00;;
77872;SDS011;67068;52.116;4.440;2023-05-27T00:58:34;8.73;;;2.30;;
77872;SDS011;67068;52.116;4.440;2023-05-27T01:00:59;8.38;;;2.00;;
77872;SDS011;67068;52.116;4.440;2023-05-27T01:03:25;8.45;;;1.60;;
77872;SDS011;67068;52.116;4.440;2023-05-27T01:05:51;7.25;;;1.90;;
77872;SDS011;67068;52.116;4.440;2023-05-27T01:10:46;9.15;;;2.10;;
77872;SDS011;67068;52.116;4.440;2023-05-27T01:15:39;8.63;;;2.00;;
77872;SDS011;67068;52.116;4.440;2023-05-27T01:18:05;8.25;;;1.98;;
77872;SDS011;67068;52.116;4.440;2023-05-27T01:20:31;9.27;;;1.90;;
77872;SDS011;67068;52.116;4.440;2023-05-27T01:22:57;7.00;;;1.92;;
77872;SDS011;67068;52.116;4.440;2023-05-27T01:25:24;6.55;;;1.85;;
77872;SDS011;67068;52.116;4.440;2023-05-27T01:27:49;7.35;;;2.10;;
77872;SDS011;67068;52.116;4.440;2023-05-27T01:30:15;8.18;;;2.15;;
77872;SDS011;67068;52.116;4.440;2023-05-27T01:32:46;8.80;;;1.83;;
77872;SDS011;67068;52.116;4.440;2023-05-27T01:37:43;8.95;;;2.10;;
77872;SDS011;67068;52.116;4.440;2023-05-27T01:40:09;8.40;;;2.17;;
77872;SDS011;67068;52.116;4.440;2023-05-27T01:42:36;9.25;;;1.92;;
77872;SDS011;67068;52.116;4.440;2023-05-27T01:45:03;6.50;;;1.63;;
77872;SDS011;67068;52.116;4.440;2023-05-27T01:47:30;5.50;;;1.50;;
77872;SDS011;67068;52.116;4.440;2023-05-27T01:49:55;7.90;;;2.13;;
77872;SDS011;67068;52.116;4.440;2023-05-27T01:52:20;7.40;;;2.13;;
77872;SDS011;67068;52.116;4.440;2023-05-27T01:54:45;9.73;;;2.00;;
77872;SDS011;67068;52.116;4.440;2023-05-27T01:57:11;7.97;;;1.90;;
77872;SDS011;67068;52.116;4.440;2023-05-27T01:59:36;9.33;;;2.27;;
77872;SDS011;67068;52.116;4.440;2023-05-27T02:02:01;7.57;;;2.00;;
77872;SDS011;67068;52.116;4.440;2023-05-27T02:04:27;9.02;;;2.10;;
77872;SDS011;67068;52.116;4.440;2023-05-27T02:06:52;6.83;;;1.67;;
77872;SDS011;67068;52.116;4.440;2023-05-27T02:09:17;8.33;;;2.00;;
77872;SDS011;67068;52.116;4.440;2023-05-27T02:11:42;8.35;;;2.20;;
77872;SDS011;67068;52.116;4.440;2023-05-27T02:14:08;8.73;;;1.90;;
77872;SDS011;67068;52.116;4.440;2023-05-27T02:16:33;7.68;;;1.95;;
77872;SDS011;67068;52.116;4.440;2023-05-27T02:18:59;7.18;;;1.52;;
77872;SDS011;67068;52.116;4.440;2023-05-27T02:21:25;9.65;;;2.35;;
77872;SDS011;67068;52.116;4.440;2023-05-27T02:23:51;7.67;;;1.93;;
77872;SDS011;67068;52.116;4.440;2023-05-27T02:26:16;7.78;;;2.05;;
77872;SDS011;67068;52.116;4.440;2023-05-27T02:28:41;8.53;;;2.20;;
77872;SDS011;67068;52.116;4.440;2023-05-27T02:31:06;6.77;;;1.70;;
77872;SDS011;67068;52.116;4.440;2023-05-27T02:33:32;7.07;;;1.97;;
77872;SDS011;67068;52.116;4.440;2023-05-27T02:35:57;6.13;;;1.73;;
77872;SDS011;67068;52.116;4.440;2023-05-27T02:38:22;7.73;;;1.50;;
77872;SDS011;67068;52.116;4.440;2023-05-27T02:40:47;8.53;;;1.90;;
77872;SDS011;67068;52.116;4.440;2023-05-27T02:43:12;10.30;;;2.33;;
77872;SDS011;67068;52.116;4.440;2023-05-27T02:45:38;6.57;;;1.60;;
77872;SDS011;67068;52.116;4.440;2023-05-27T02:48:03;5.63;;;1.47;;
77872;SDS011;67068;52.116;4.440;2023-05-27T02:50:28;8.27;;;1.52;;
77872;SDS011;67068;52.116;4.440;2023-05-27T02:52:53;8.57;;;1.97;;
77872;SDS011;67068;52.116;4.440;2023-05-27T02:55:20;7.72;;;1.95;;
77872;SDS011;67068;52.116;4.440;2023-05-27T02:57:45;7.60;;;1.93;;
77872;SDS011;67068;52.116;4.440;2023-05-27T03:00:10;7.57;;;1.58;;
77872;SDS011;67068;52.116;4.440;2023-05-27T03:02:36;8.90;;;2.08;;
77872;SDS011;67068;52.116;4.440;2023-05-27T03:05:01;7.27;;;1.87;;
77872;SDS011;67068;52.116;4.440;2023-05-27T03:07:27;6.57;;;1.65;;
77872;SDS011;67068;52.116;4.440;2023-05-27T03:09:55;7.15;;;1.63;;
77872;SDS011;67068;52.116;4.440;2023-05-27T03:12:21;9.75;;;1.77;;
77872;SDS011;67068;52.116;4.440;2023-05-27T03:14:46;7.63;;;1.73;;
77872;SDS011;67068;52.116;4.440;2023-05-27T03:17:12;8.43;;;2.00;;
77872;SDS011;67068;52.116;4.440;2023-05-27T03:19:37;10.80;;;1.63;;
77872;SDS011;67068;52.116;4.440;2023-05-27T03:22:02;6.00;;;1.63;;
77872;SDS011;67068;52.116;4.440;2023-05-27T03:24:27;6.67;;;1.47;;
77872;SDS011;67068;52.116;4.440;2023-05-27T03:26:52;6.10;;;1.43;;
77872;SDS011;67068;52.116;4.440;2023-05-27T03:29:18;5.53;;;1.70;;
77872;SDS011;67068;52.116;4.440;2023-05-27T03:31:43;6.67;;;1.80;;
77872;SDS011;67068;52.116;4.440;2023-05-27T03:34:08;6.33;;;2.00;;
77872;SDS011;67068;52.116;4.440;2023-05-27T03:36:33;8.20;;;1.97;;
77872;SDS011;67068;52.116;4.440;2023-05-27T03:39:00;9.00;;;1.80;;
77872;SDS011;67068;52.116;4.440;2023-05-27T03:41:25;8.60;;;1.77;;
77872;SDS011;67068;52.116;4.440;2023-05-27T03:43:50;7.50;;;2.13;;
77872;SDS011;67068;52.116;4.440;2023-05-27T03:46:15;11.50;;;2.17;;
77872;SDS011;67068;52.116;4.440;2023-05-27T03:48:41;7.43;;;1.73;;
77872;SDS011;67068;52.116;4.440;2023-05-27T03:51:06;7.47;;;1.70;;
77872;SDS011;67068;52.116;4.440;2023-05-27T03:53:31;6.50;;;1.30;;
77872;SDS011;67068;52.116;4.440;2023-05-27T03:55:56;6.30;;;1.40;;
77872;SDS011;67068;52.116;4.440;2023-05-27T03:58:22;7.30;;;1.60;;
77872;SDS011;67068;52.116;4.440;2023-05-27T04:00:47;6.95;;;1.50;;
77872;SDS011;67068;52.116;4.440;2023-05-27T04:03:13;8.20;;;2.00;;
77872;SDS011;67068;52.116;4.440;2023-05-27T04:05:39;6.25;;;1.40;;
77872;SDS011;67068;52.116;4.440;2023-05-27T04:08:04;4.80;;;1.20;;
77872;SDS011;67068;52.116;4.440;2023-05-27T04:10:29;6.63;;;1.50;;
77872;SDS011;67068;52.116;4.440;2023-05-27T04:12:54;5.83;;;1.53;;
77872;SDS011;67068;52.116;4.440;2023-05-27T04:15:20;8.13;;;1.73;;
77872;SDS011;67068;52.116;4.440;2023-05-27T04:17:45;7.13;;;1.55;;
77872;SDS011;67068;52.116;4.440;2023-05-27T04:20:11;7.43;;;1.73;;
77872;SDS011;67068;52.116;4.440;2023-05-27T04:22:38;7.85;;;1.48;;
77872;SDS011;67068;52.116;4.440;2023-05-27T04:25:04;6.53;;;1.20;;
77872;SDS011;67068;52.116;4.440;2023-05-27T04:27:29;5.82;;;1.65;;
77872;SDS011;67068;52.116;4.440;2023-05-27T04:29:54;7.37;;;1.30;;
77872;SDS011;67068;52.116;4.440;2023-05-27T04:32:20;6.37;;;1.50;;
77872;SDS011;67068;52.116;4.440;2023-05-27T04:34:45;7.45;;;1.70;;
77872;SDS011;67068;52.116;4.440;2023-05-27T04:37:10;8.40;;;2.13;;
77872;SDS011;67068;52.116;4.440;2023-05-27T04:39:36;7.40;;;1.50;;
77872;SDS011;67068;52.116;4.440;2023-05-27T04:42:01;6.87;;;1.50;;
77872;SDS011;67068;52.116;4.440;2023-05-27T04:44:27;5.82;;;1.60;;
77872;SDS011;67068;52.116;4.440;2023-05-27T04:46:53;7.05;;;1.60;;
77872;SDS011;67068;52.116;4.440;2023-05-27T04:49:19;7.90;;;1.80;;
77872;SDS011;67068;52.116;4.440;2023-05-27T04:51:44;9.67;;;1.67;;
77872;SDS011;67068;52.116;4.440;2023-05-27T04:54:10;6.40;;;1.40;;
77872;SDS011;67068;52.116;4.440;2023-05-27T04:56:36;8.40;;;1.70;;
77872;SDS011;67068;52.116;4.440;2023-05-27T04:59:01;6.70;;;1.80;;
77872;SDS011;67068;52.116;4.440;2023-05-27T05:01:26;7.03;;;1.70;;
77872;SDS011;67068;52.116;4.440;2023-05-27T05:03:52;7.10;;;1.75;;
77872;SDS011;67068;52.116;4.440;2023-05-27T05:06:27;5.93;;;1.38;;
77872;SDS011;67068;52.116;4.440;2023-05-27T05:08:53;5.95;;;1.50;;
77872;SDS011;67068;52.116;4.440;2023-05-27T05:11:18;8.77;;;1.70;;
77872;SDS011;67068;52.116;4.440;2023-05-27T05:13:43;6.40;;;1.40;;
77872;SDS011;67068;52.116;4.440;2023-05-27T05:16:08;6.70;;;1.67;;
77872;SDS011;67068;52.116;4.440;2023-05-27T05:18:34;7.38;;;1.70;;
77872;SDS011;67068;52.116;4.440;2023-05-27T05:20:59;5.87;;;1.47;;
77872;SDS011;67068;52.116;4.440;2023-05-27T05:23:24;6.10;;;1.40;;
77872;SDS011;67068;52.116;4.440;2023-05-27T05:25:50;6.57;;;1.45;;
77872;SDS011;67068;52.116;4.440;2023-05-27T05:28:20;7.15;;;1.42;;
77872;SDS011;67068;52.116;4.440;2023-05-27T05:30:45;5.50;;;1.45;;
77872;SDS011;67068;52.116;4.440;2023-05-27T05:33:10;5.43;;;1.27;;
77872;SDS011;67068;52.116;4.440;2023-05-27T05:35:36;7.83;;;1.33;;
77872;SDS011;67068;52.116;4.440;2023-05-27T05:38:01;6.37;;;1.47;;
77872;SDS011;67068;52.116;4.440;2023-05-27T05:40:26;8.53;;;1.83;;
77872;SDS011;67068;52.116;4.440;2023-05-27T05:42:51;6.60;;;1.57;;
77872;SDS011;67068;52.116;4.440;2023-05-27T05:45:16;8.07;;;1.90;;
77872;SDS011;67068;52.116;4.440;2023-05-27T05:47:42;7.80;;;1.83;;
77872;SDS011;67068;52.116;4.440;2023-05-27T05:50:07;7.23;;;1.33;;
77872;SDS011;67068;52.116;4.440;2023-05-27T05:52:32;9.43;;;1.80;;
77872;SDS011;67068;52.116;4.440;2023-05-27T05:54:57;7.77;;;1.70;;
77872;SDS011;67068;52.116;4.440;2023-05-27T05:57:23;9.03;;;1.70;;
77872;SDS011;67068;52.116;4.440;2023-05-27T05:59:48;7.80;;;1.80;;
77872;SDS011;67068;52.116;4.440;2023-05-27T06:02:13;6.20;;;1.20;;
77872;SDS011;67068;52.116;4.440;2023-05-27T06:04:38;7.80;;;1.80;;
77872;SDS011;67068;52.116;4.440;2023-05-27T06:07:03;6.33;;;1.43;;
77872;SDS011;67068;52.116;4.440;2023-05-27T06:09:29;6.85;;;1.50;;
77872;SDS011;67068;52.116;4.440;2023-05-27T06:11:54;6.77;;;1.53;;
77872;SDS011;67068;52.116;4.440;2023-05-27T06:14:19;6.60;;;1.87;;
77872;SDS011;67068;52.116;4.440;2023-05-27T06:16:45;6.73;;;1.50;;
77872;SDS011;67068;52.116;4.440;2023-05-27T06:19:10;7.07;;;1.50;;
77872;SDS011;67068;52.116;4.440;2023-05-27T06:21:35;8.63;;;2.00;;
77872;SDS011;67068;52.116;4.440;2023-05-27T06:24:01;6.72;;;1.60;;
77872;SDS011;67068;52.116;4.440;2023-05-27T06:26:27;6.88;;;1.65;;
77872;SDS011;67068;52.116;4.440;2023-05-27T06:28:52;7.88;;;1.80;;
77872;SDS011;67068;52.116;4.440;2023-05-27T06:31:17;6.83;;;2.03;;
77872;SDS011;67068;52.116;4.440;2023-05-27T06:33:43;7.80;;;1.73;;
77872;SDS011;67068;52.116;4.440;2023-05-27T06:36:08;6.50;;;1.33;;
77872;SDS011;67068;52.116;4.440;2023-05-27T06:38:33;6.53;;;1.50;;
77872;SDS011;67068;52.116;4.440;2023-05-27T06:40:58;6.20;;;1.50;;
77872;SDS011;67068;52.116;4.440;2023-05-27T06:43:23;7.90;;;1.90;;
77872;SDS011;67068;52.116;4.440;2023-05-27T06:45:49;8.10;;;1.40;;
77872;SDS011;67068;52.116;4.440;2023-05-27T06:48:14;8.63;;;1.87;;
77872;SDS011;67068;52.116;4.440;2023-05-27T06:50:39;8.07;;;1.80;;
77872;SDS011;67068;52.116;4.440;2023-05-27T06:53:05;6.60;;;1.70;;
77872;SDS011;67068;52.116;4.440;2023-05-27T06:55:30;8.33;;;2.10;;
77872;SDS011;67068;52.116;4.440;2023-05-27T06:57:55;9.60;;;1.87;;
77872;SDS011;67068;52.116;4.440;2023-05-27T07:00:20;8.50;;;1.53;;
77872;SDS011;67068;52.116;4.440;2023-05-27T07:02:45;8.17;;;1.73;;
77872;SDS011;67068;52.116;4.440;2023-05-27T07:05:11;11.23;;;2.30;;
77872;SDS011;67068;52.116;4.440;2023-05-27T07:07:36;9.23;;;1.73;;
77872;SDS011;67068;52.116;4.440;2023-05-27T07:10:01;8.87;;;1.90;;
77872;SDS011;67068;52.116;4.440;2023-05-27T07:12:26;8.97;;;2.00;;
77872;SDS011;67068;52.116;4.440;2023-05-27T07:14:51;9.70;;;1.70;;
77872;SDS011;67068;52.116;4.440;2023-05-27T07:17:17;9.00;;;1.60;;
77872;SDS011;67068;52.116;4.440;2023-05-27T07:19:42;7.60;;;1.50;;
77872;SDS011;67068;52.116;4.440;2023-05-27T07:22:07;9.40;;;1.93;;
77872;SDS011;67068;52.116;4.440;2023-05-27T07:24:32;9.93;;;1.80;;
77872;SDS011;67068;52.116;4.440;2023-05-27T07:26:57;8.83;;;1.87;;
77872;SDS011;67068;52.116;4.440;2023-05-27T07:29:23;11.53;;;2.23;;
77872;SDS011;67068;52.116;4.440;2023-05-27T07:31:48;9.23;;;2.27;;
77872;SDS011;67068;52.116;4.440;2023-05-27T07:34:13;8.13;;;1.80;;
77872;SDS011;67068;52.116;4.440;2023-05-27T07:36:38;9.07;;;1.80;;
77872;SDS011;67068;52.116;4.440;2023-05-27T07:39:04;8.43;;;1.73;;
77872;SDS011;67068;52.116;4.440;2023-05-27T07:41:29;7.43;;;1.70;;
77872;SDS011;67068;52.116;4.440;2023-05-27T07:43:55;7.85;;;1.75;;
77872;SDS011;67068;52.116;4.440;2023-05-27T07:46:20;6.75;;;1.90;;
77872;SDS011;67068;52.116;4.440;2023-05-27T07:48:45;7.13;;;1.87;;
77872;SDS011;67068;52.116;4.440;2023-05-27T07:51:10;7.90;;;1.70;;
77872;SDS011;67068;52.116;4.440;2023-05-27T07:53:36;8.55;;;1.80;;
77872;SDS011;67068;52.116;4.440;2023-05-27T07:56:01;10.20;;;1.65;;
77872;SDS011;67068;52.116;4.440;2023-05-27T07:58:27;8.88;;;1.90;;
77872;SDS011;67068;52.116;4.440;2023-05-27T08:00:53;7.80;;;1.90;;
77872;SDS011;67068;52.116;4.440;2023-05-27T08:03:18;7.70;;;2.13;;
77872;SDS011;67068;52.116;4.440;2023-05-27T08:05:43;7.70;;;1.77;;
77872;SDS011;67068;52.116;4.440;2023-05-27T08:08:08;8.10;;;1.93;;
77872;SDS011;67068;52.116;4.440;2023-05-27T08:10:33;7.70;;;1.83;;
77872;SDS011;67068;52.116;4.440;2023-05-27T08:12:59;7.47;;;2.07;;
77872;SDS011;67068;52.116;4.440;2023-05-27T08:15:24;6.87;;;1.97;;
77872;SDS011;67068;52.116;4.440;2023-05-27T08:17:49;8.03;;;2.03;;
77872;SDS011;67068;52.116;4.440;2023-05-27T08:20:14;7.77;;;2.03;;
77872;SDS011;67068;52.116;4.440;2023-05-27T08:22:41;7.07;;;2.00;;
77872;SDS011;67068;52.116;4.440;2023-05-27T08:25:06;8.55;;;1.83;;
77872;SDS011;67068;52.116;4.440;2023-05-27T08:27:42;8.82;;;1.98;;
77872;SDS011;67068;52.116;4.440;2023-05-27T08:30:08;7.82;;;1.90;;
77872;SDS011;67068;52.116;4.440;2023-05-27T08:32:33;7.28;;;2.05;;
77872;SDS011;67068;52.116;4.440;2023-05-27T08:34:58;10.37;;;2.23;;
77872;SDS011;67068;52.116;4.440;2023-05-27T08:37:24;7.68;;;1.77;;
77872;SDS011;67068;52.116;4.440;2023-05-27T08:39:50;8.07;;;1.90;;
77872;SDS011;67068;52.116;4.440;2023-05-27T08:42:15;8.13;;;1.97;;
77872;SDS011;67068;52.116;4.440;2023-05-27T08:44:40;9.17;;;2.00;;
77872;SDS011;67068;52.116;4.440;2023-05-27T08:47:05;7.17;;;1.87;;
77872;SDS011;67068;52.116;4.440;2023-05-27T08:49:32;8.30;;;1.95;;
77872;SDS011;67068;52.116;4.440;2023-05-27T08:51:57;9.50;;;2.20;;
77872;SDS011;67068;52.116;4.440;2023-05-27T08:54:25;9.32;;;2.90;;
77872;SDS011;67068;52.116;4.440;2023-05-27T08:56:50;7.35;;;1.88;;
77872;SDS011;67068;52.116;4.440;2023-05-27T08:59:17;9.73;;;2.17;;
77872;SDS011;67068;52.116;4.440;2023-05-27T09:01:42;9.40;;;2.10;;
77872;SDS011;67068;52.116;4.440;2023-05-27T09:04:07;8.63;;;2.23;;
77872;SDS011;67068;52.116;4.440;2023-05-27T09:06:33;8.40;;;2.07;;
77872;SDS011;67068;52.116;4.440;2023-05-27T09:08:58;9.13;;;2.20;;
77872;SDS011;67068;52.116;4.440;2023-05-27T09:11:25;9.27;;;1.90;;
77872;SDS011;67068;52.116;4.440;2023-05-27T09:13:55;8.95;;;1.80;;
77872;SDS011;67068;52.116;4.440;2023-05-27T09:16:21;7.95;;;1.92;;
77872;SDS011;67068;52.116;4.440;2023-05-27T09:18:46;9.60;;;2.03;;
77872;SDS011;67068;52.116;4.440;2023-05-27T09:21:12;7.77;;;2.03;;
77872;SDS011;67068;52.116;4.440;2023-05-27T09:23:37;8.30;;;2.20;;
77872;SDS011;67068;52.116;4.440;2023-05-27T09:26:07;6.43;;;1.70;;
77872;SDS011;67068;52.116;4.440;2023-05-27T09:28:32;8.02;;;1.90;;
77872;SDS011;67068;52.116;4.440;2023-05-27T09:31:00;8.13;;;2.40;;
77872;SDS011;67068;52.116;4.440;2023-05-27T09:33:34;7.72;;;1.70;;
77872;SDS011;67068;52.116;4.440;2023-05-27T09:35:59;9.45;;;1.85;;
77872;SDS011;67068;52.116;4.440;2023-05-27T09:38:29;9.80;;;2.13;;
77872;SDS011;67068;52.116;4.440;2023-05-27T09:40:55;10.35;;;1.85;;
77872;SDS011;67068;52.116;4.440;2023-05-27T09:43:20;7.00;;;1.83;;
77872;SDS011;67068;52.116;4.440;2023-05-27T09:45:45;7.75;;;2.08;;
77872;SDS011;67068;52.116;4.440;2023-05-27T09:48:11;7.60;;;2.07;;
77872;SDS011;67068;52.116;4.440;2023-05-27T09:50:37;7.68;;;1.98;;
77872;SDS011;67068;52.116;4.440;2023-05-27T09:53:03;9.07;;;2.08;;
77872;SDS011;67068;52.116;4.440;2023-05-27T09:55:30;7.47;;;1.95;;
77872;SDS011;67068;52.116;4.440;2023-05-27T09:57:55;8.40;;;2.00;;
77872;SDS011;67068;52.116;4.440;2023-05-27T10:00:20;9.63;;;2.80;;
77872;SDS011;67068;52.116;4.440;2023-05-27T10:02:46;8.90;;;1.90;;
77872;SDS011;67068;52.116;4.440;2023-05-27T10:05:12;7.88;;;2.00;;
77872;SDS011;67068;52.116;4.440;2023-05-27T10:07:38;7.75;;;1.90;;
77872;SDS011;67068;52.116;4.440;2023-05-27T10:10:07;8.50;;;2.00;;
77872;SDS011;67068;52.116;4.440;2023-05-27T10:12:35;7.38;;;1.80;;
77872;SDS011;67068;52.116;4.440;2023-05-27T10:15:01;7.28;;;2.03;;
77872;SDS011;67068;52.116;4.440;2023-05-27T10:17:26;7.70;;;1.63;;
77872;SDS011;67068;52.116;4.440;2023-05-27T10:19:58;6.10;;;1.50;;
77872;SDS011;67068;52.116;4.440;2023-05-27T10:22:23;7.50;;;1.67;;
77872;SDS011;67068;52.116;4.440;2023-05-27T10:24:48;7.18;;;2.08;;
77872;SDS011;67068;52.116;4.440;2023-05-27T10:27:15;9.05;;;1.80;;
77872;SDS011;67068;52.116;4.440;2023-05-27T10:29:40;8.20;;;1.95;;
77872;SDS011;67068;52.116;4.440;2023-05-27T10:32:06;6.95;;;2.03;;
77872;SDS011;67068;52.116;4.440;2023-05-27T10:34:35;8.32;;;2.20;;
77872;SDS011;67068;52.116;4.440;2023-05-27T10:37:01;7.10;;;2.33;;
77872;SDS011;67068;52.116;4.440;2023-05-27T10:39:26;7.53;;;2.23;;
77872;SDS011;67068;52.116;4.440;2023-05-27T10:41:53;9.17;;;2.47;;
77872;SDS011;67068;52.116;4.440;2023-05-27T10:44:28;7.72;;;2.00;;
77872;SDS011;67068;52.116;4.440;2023-05-27T10:49:34;6.53;;;1.80;;
77872;SDS011;67068;52.116;4.440;2023-05-27T10:54:47;8.48;;;2.60;;
77872;SDS011;67068;52.116;4.440;2023-05-27T10:57:17;8.90;;;2.03;;
77872;SDS011;67068;52.116;4.440;2023-05-27T11:02:14;8.88;;;2.40;;
77872;SDS011;67068;52.116;4.440;2023-05-27T11:04:39;8.43;;;2.03;;
77872;SDS011;67068;52.116;4.440;2023-05-27T11:07:05;9.20;;;2.20;;
77872;SDS011;67068;52.116;4.440;2023-05-27T11:09:30;8.03;;;2.20;;
77872;SDS011;67068;52.116;4.440;2023-05-27T11:11:56;8.05;;;1.92;;
77872;SDS011;67068;52.116;4.440;2023-05-27T11:14:22;8.52;;;2.10;;
77872;SDS011;67068;52.116;4.440;2023-05-27T11:16:48;8.38;;;2.25;;
77872;SDS011;67068;52.116;4.440;2023-05-27T11:19:17;8.18;;;2.15;;
77872;SDS011;67068;52.116;4.440;2023-05-27T11:21:46;9.45;;;2.30;;
77872;SDS011;67068;52.116;4.440;2023-05-27T11:24:15;8.23;;;1.95;;
77872;SDS011;67068;52.116;4.440;2023-05-27T11:26:42;10.23;;;2.35;;
77872;SDS011;67068;52.116;4.440;2023-05-27T11:29:07;8.45;;;2.50;;
77872;SDS011;67068;52.116;4.440;2023-05-27T11:31:33;9.57;;;1.80;;
77872;SDS011;67068;52.116;4.440;2023-05-27T11:33:58;7.67;;;2.23;;
77872;SDS011;67068;52.116;4.440;2023-05-27T11:36:27;8.47;;;2.03;;
77872;SDS011;67068;52.116;4.440;2023-05-27T11:39:01;8.48;;;2.30;;
77872;SDS011;67068;52.116;4.440;2023-05-27T11:41:28;13.32;;;2.47;;
77872;SDS011;67068;52.116;4.440;2023-05-27T11:43:55;9.38;;;2.83;;
77872;SDS011;67068;52.116;4.440;2023-05-27T11:46:21;10.10;;;2.35;;
77872;SDS011;67068;52.116;4.440;2023-05-27T11:48:46;11.10;;;2.75;;
77872;SDS011;67068;52.116;4.440;2023-05-27T11:51:12;13.32;;;2.88;;
77872;SDS011;67068;52.116;4.440;2023-05-27T11:53:46;15.80;;;3.17;;
77872;SDS011;67068;52.116;4.440;2023-05-27T11:56:12;11.07;;;3.13;;
77872;SDS011;67068;52.116;4.440;2023-05-27T11:58:37;11.43;;;2.92;;
77872;SDS011;67068;52.116;4.440;2023-05-27T12:01:05;9.33;;;2.30;;
77872;SDS011;67068;52.116;4.440;2023-05-27T12:03:32;10.75;;;3.30;;
77872;SDS011;67068;52.116;4.440;2023-05-27T12:05:58;9.20;;;2.63;;
77872;SDS011;67068;52.116;4.440;2023-05-27T12:08:23;11.87;;;2.60;;
77872;SDS011;67068;52.116;4.440;2023-05-27T12:10:49;9.65;;;2.75;;
77872;SDS011;67068;52.116;4.440;2023-05-27T12:13:18;14.73;;;3.28;;
77872;SDS011;67068;52.116;4.440;2023-05-27T12:15:44;11.90;;;3.10;;
77872;SDS011;67068;52.116;4.440;2023-05-27T12:18:09;10.90;;;3.13;;
77872;SDS011;67068;52.116;4.440;2023-05-27T12:20:34;11.07;;;3.33;;
77872;SDS011;67068;52.116;4.440;2023-05-27T12:22:59;12.53;;;2.97;;
77872;SDS011;67068;52.116;4.440;2023-05-27T12:25:25;14.15;;;3.58;;
77872;SDS011;67068;52.116;4.440;2023-05-27T12:27:50;12.80;;;3.42;;
77872;SDS011;67068;52.116;4.440;2023-05-27T12:30:15;11.93;;;3.27;;
77872;SDS011;67068;52.116;4.440;2023-05-27T12:32:41;13.13;;;3.37;;
77872;SDS011;67068;52.116;4.440;2023-05-27T12:35:07;10.52;;;3.35;;
77872;SDS011;67068;52.116;4.440;2023-05-27T12:37:32;11.27;;;3.10;;
77872;SDS011;67068;52.116;4.440;2023-05-27T12:39:57;12.53;;;3.17;;
77872;SDS011;67068;52.116;4.440;2023-05-27T12:42:23;17.60;;;3.47;;
77872;SDS011;67068;52.116;4.440;2023-05-27T12:44:48;11.77;;;3.47;;
77872;SDS011;67068;52.116;4.440;2023-05-27T12:47:13;14.35;;;3.25;;
77872;SDS011;67068;52.116;4.440;2023-05-27T12:49:38;12.77;;;3.07;;
77872;SDS011;67068;52.116;4.440;2023-05-27T12:52:04;10.27;;;3.70;;
77872;SDS011;67068;52.116;4.440;2023-05-27T12:54:29;14.35;;;3.85;;
77872;SDS011;67068;52.116;4.440;2023-05-27T12:56:55;12.90;;;3.60;;
77872;SDS011;67068;52.116;4.440;2023-05-27T12:59:20;13.40;;;3.50;;
77872;SDS011;67068;52.116;4.440;2023-05-27T13:01:46;12.20;;;3.87;;
77872;SDS011;67068;52.116;4.440;2023-05-27T13:04:11;15.07;;;3.63;;
77872;SDS011;67068;52.116;4.440;2023-05-27T13:06:37;10.95;;;3.08;;
77872;SDS011;67068;52.116;4.440;2023-05-27T13:09:02;13.32;;;3.00;;
77872;SDS011;67068;52.116;4.440;2023-05-27T13:11:27;12.20;;;3.23;;
77872;SDS011;67068;52.116;4.440;2023-05-27T13:13:53;10.83;;;3.10;;
77872;SDS011;67068;52.116;4.440;2023-05-27T13:16:18;12.20;;;2.67;;
77872;SDS011;67068;52.116;4.440;2023-05-27T13:18:43;12.63;;;2.87;;
77872;SDS011;67068;52.116;4.440;2023-05-27T13:21:08;12.47;;;3.70;;
77872;SDS011;67068;52.116;4.440;2023-05-27T13:23:33;9.43;;;2.77;;
77872;SDS011;67068;52.116;4.440;2023-05-27T13:25:59;14.02;;;3.10;;
77872;SDS011;67068;52.116;4.440;2023-05-27T13:28:24;12.90;;;3.67;;
77872;SDS011;67068;52.116;4.440;2023-05-27T13:30:49;12.67;;;3.40;;
77872;SDS011;67068;52.116;4.440;2023-05-27T13:33:15;15.70;;;4.28;;
77872;SDS011;67068;52.116;4.440;2023-05-27T13:35:40;12.88;;;3.28;;
77872;SDS011;67068;52.116;4.440;2023-05-27T13:38:06;13.18;;;3.30;;
77872;SDS011;67068;52.116;4.440;2023-05-27T13:40:37;14.13;;;3.60;;
77872;SDS011;67068;52.116;4.440;2023-05-27T13:43:02;12.10;;;3.20;;
77872;SDS011;67068;52.116;4.440;2023-05-27T13:45:27;13.90;;;3.57;;
77872;SDS011;67068;52.116;4.440;2023-05-27T13:47:53;13.50;;;3.53;;
77872;SDS011;67068;52.116;4.440;2023-05-27T13:50:18;16.07;;;3.80;;
77872;SDS011;67068;52.116;4.440;2023-05-27T13:52:43;12.93;;;3.70;;
77872;SDS011;67068;52.116;4.440;2023-05-27T13:55:10;14.57;;;3.28;;
77872;SDS011;67068;52.116;4.440;2023-05-27T13:57:35;12.47;;;4.13;;
77872;SDS011;67068;52.116;4.440;2023-05-27T14:00:00;13.27;;;3.63;;
77872;SDS011;67068;52.116;4.440;2023-05-27T14:02:26;12.10;;;3.50;;
77872;SDS011;67068;52.116;4.440;2023-05-27T14:04:51;14.80;;;3.58;;
77872;SDS011;67068;52.116;4.440;2023-05-27T14:07:18;12.02;;;3.70;;
77872;SDS011;67068;52.116;4.440;2023-05-27T14:09:43;13.57;;;3.45;;
77872;SDS011;67068;52.116;4.440;2023-05-27T14:12:09;12.33;;;3.63;;
77872;SDS011;67068;52.116;4.440;2023-05-27T14:14:34;15.13;;;3.80;;
77872;SDS011;67068;52.116;4.440;2023-05-27T14:16:59;12.87;;;4.07;;
77872;SDS011;67068;52.116;4.440;2023-05-27T14:19:25;17.05;;;4.75;;
77872;SDS011;67068;52.116;4.440;2023-05-27T14:21:50;14.07;;;4.07;;
77872;SDS011;67068;52.116;4.440;2023-05-27T14:24:16;13.65;;;3.40;;
77872;SDS011;67068;52.116;4.440;2023-05-27T14:26:41;14.97;;;3.87;;
77872;SDS011;67068;52.116;4.440;2023-05-27T14:29:06;13.55;;;3.70;;
77872;SDS011;67068;52.116;4.440;2023-05-27T14:31:31;13.30;;;3.60;;
77872;SDS011;67068;52.116;4.440;2023-05-27T14:33:56;14.27;;;4.20;;
77872;SDS011;67068;52.116;4.440;2023-05-27T14:36:22;13.23;;;3.60;;
77872;SDS011;67068;52.116;4.440;2023-05-27T14:38:47;12.67;;;3.77;;
77872;SDS011;67068;52.116;4.440;2023-05-27T14:41:12;15.30;;;3.80;;
77872;SDS011;67068;52.116;4.440;2023-05-27T14:43:37;13.47;;;3.57;;
77872;SDS011;67068;52.116;4.440;2023-05-27T14:46:02;12.87;;;3.90;;
77872;SDS011;67068;52.116;4.440;2023-05-27T14:48:28;11.63;;;3.30;;
77872;SDS011;67068;52.116;4.440;2023-05-27T14:50:53;12.77;;;3.40;;